Catheys Valley, CA (95306)

7:59 PM PDT on July 06, 2015 (GMT -0700)
Western Yosemite Region -Mariposa, Mariposa County, CA | | Change Station
CLOSE
Current Station
Personal Weather Station
Location: Mariposa, CA
Elevation: 2224 ft
Nearby Weather Stations

Elev 2224 ft 37.50 °N, 119.98 °W | Updated 3 minutes ago

Clear
Clear
81.2 °F
Feels Like 80 °F
N
0.0
Wind Variable Wind from West
Gusts 2.0 mph

Today
High -- | Low -- °F
--% Chance of Precip.
Yesterday
High -- | Low -- °F
Precip. -- in
5:45 AM 8:24 PM
Waning Gibbous, 69% visible
Pressure 29.90 in
Visibility 10.0 miles
Clouds Clear
Heat Index 80 °F
Dew Point 45 °F
Humidity 28%
Rainfall 0.00 in
Snow Depth Not available.
UV 0 out of 12
Pollen 5.00 out of 12
Air Quality Not available.
Flu Activity Not available.
METAR KMCE 070253Z AUTO 32011KT 10SM CLR 30/12 A2990 RMK AO2 SLP124 T03000117 56002

More Conditions Fewer Conditions

Pressure 29.90 in
Visibility 10.0 miles
Clouds Clear
Heat Index 80 °F
Dew Point 45 °F
Humidity 28%
Rainfall 0.00 in
Snow Depth Not available.
UV 0 out of 12
Pollen 5.00 out of 12
Air Quality Not available.
Flu Activity Not available.
METAR KMCE 070253Z AUTO 32011KT 10SM CLR 30/12 A2990 RMK AO2 SLP124 T03000117 56002

More Conditions Fewer Conditions

10-Day Weather Forecast

×

Almanac

Astronomy

Jul. 06, 2015 Rise Set
Actual Time
Civil Twilight
Nautical Twilight
Astronomical Twilight
Moon
Length of Visible Light
Length of Day
Tomorrow will be .
, % of the Moon is Illuminated

Today's Extremes

State Highs State Lows

Community

WunderPhotos

Upload Photos

1,835,701 photos uploaded!

WunderBlogs® & News

Nearby

Air Quality

  Air Quality AQ Index Pollutant
Not available.

Snow Depth

Station Depth Elevation

Earthquake Activity

City Distance Mag. Time & Date
Minimum magnitude displayed is 2.5.

Coastal Water Temperatures

Place Temperature

Stations

Nearby Weather Stations

Station Location Temp. Windchill Dew Point Humidity Wind Precip. Elev Updated Type